Time;durP1;ratioP1;P1;durP2;ratioP2;P2;SDS_P1;SDS_P2;PMS_P1;PMS_P2;Temp;Humidity;BMP_temperature;BMP_pressure;BME280_temperature;BME280_humidity;BME280_pressure;Samples;Min_cycle;Max_cycle;Signal;HPM_P1;HPM_P2
2021/08/26 00:01:16;;;;;;;10.45;7.47;;;;;;;;;;5077634;28;20047;-64
2021/08/26 00:06:26;;;;;;;11.45;8.18;;;;;;;;;;5095540;28;20038;-64
2021/08/26 00:08:54;;;;;;;12.57;7.47;;;;;;;;;;5077292;28;20445;-69
2021/08/26 00:11:23;;;;;;;11.45;7.47;;;;;;;;;;5095369;28;20501;-70
2021/08/26 00:13:51;;;;;;;11.52;8.05;;;;;;;;;;5095260;28;20077;-70
2021/08/26 00:16:17;;;;;;;12.38;8.02;;;;;;;;;;5076996;28;20406;-70
2021/08/26 00:18:43;;;;;;;13.15;7.82;;;;;;;;;;5095138;28;20039;-64
2021/08/26 00:21:08;;;;;;;13.48;7.88;;;;;;;;;;5076990;28;20036;-64
2021/08/26 00:23:35;;;;;;;12.98;7.30;;;;;;;;;;5095405;28;20020;-63
2021/08/26 00:26:00;;;;;;;12.77;7.63;;;;;;;;;;5095075;28;20047;-63
2021/08/26 00:28:25;;;;;;;9.85;7.03;;;;;;;;;;5094929;28;20099;-63
2021/08/26 00:30:51;;;;;;;11.45;7.55;;;;;;;;;;5076993;28;20086;-63
2021/08/26 00:33:18;;;;;;;12.88;7.32;;;;;;;;;;5095094;28;20449;-64
2021/08/26 00:35:43;;;;;;;11.27;7.00;;;;;;;;;;5095045;28;20067;-63
2021/08/26 00:38:08;;;;;;;10.85;7.85;;;;;;;;;;5076849;28;20059;-63
2021/08/26 00:40:36;;;;;;;9.80;6.75;;;;;;;;;;5094399;28;20523;-64
2021/08/26 00:43:02;;;;;;;8.82;7.00;;;;;;;;;;5094609;28;20036;-63
2021/08/26 00:45:30;;;;;;;10.00;6.68;;;;;;;;;;5094907;28;20040;-64
2021/08/26 00:47:56;;;;;;;9.23;6.72;;;;;;;;;;5094799;28;20474;-63
2021/08/26 00:50:25;;;;;;;10.50;7.07;;;;;;;;;;5076536;28;20042;-63
2021/08/26 00:52:52;;;;;;;13.32;7.45;;;;;;;;;;5094559;28;20036;-63
2021/08/26 00:55:18;;;;;;;12.35;7.30;;;;;;;;;;5094408;28;20039;-63
2021/08/26 00:57:43;;;;;;;12.50;7.82;;;;;;;;;;5094619;28;20431;-63
2021/08/26 01:00:10;;;;;;;11.35;7.80;;;;;;;;;;5094263;28;20050;-63
2021/08/26 01:02:41;;;;;;;10.05;7.45;;;;;;;;;;5094187;28;20043;-63
2021/08/26 01:05:15;;;;;;;12.00;7.53;;;;;;;;;;5094853;28;20036;-63
2021/08/26 01:07:47;;;;;;;11.05;8.02;;;;;;;;;;5094681;28;20470;-63
2021/08/26 01:10:15;;;;;;;13.57;7.95;;;;;;;;;;5094126;28;20043;-63
2021/08/26 01:12:43;;;;;;;13.40;7.38;;;;;;;;;;5094144;28;20111;-63
2021/08/26 01:15:09;;;;;;;10.35;7.32;;;;;;;;;;5094177;28;20044;-63
2021/08/26 01:17:34;;;;;;;11.60;7.13;;;;;;;;;;5094297;28;20070;-63
2021/08/26 01:20:01;;;;;;;12.23;7.53;;;;;;;;;;5094167;28;20036;-63
2021/08/26 01:22:27;;;;;;;12.10;7.38;;;;;;;;;;5094204;28;20024;-63
2021/08/26 01:24:55;;;;;;;11.07;7.55;;;;;;;;;;5094246;28;20521;-64
2021/08/26 01:27:20;;;;;;;11.38;7.65;;;;;;;;;;5094063;28;20030;-64
2021/08/26 01:29:47;;;;;;;9.02;7.07;;;;;;;;;;5094176;28;20028;-64
2021/08/26 01:32:16;;;;;;;10.98;7.82;;;;;;;;;;5093990;28;20401;-64
2021/08/26 01:34:41;;;;;;;11.48;7.85;;;;;;;;;;5093364;28;20478;-63
2021/08/26 01:37:07;;;;;;;12.02;7.55;;;;;;;;;;5093806;28;20086;-64
2021/08/26 01:39:32;;;;;;;12.38;8.05;;;;;;;;;;5093685;28;20036;-63
2021/08/26 01:41:57;;;;;;;11.73;7.53;;;;;;;;;;5075652;28;20028;-63
2021/08/26 01:44:26;;;;;;;13.88;7.82;;;;;;;;;;5093634;28;20043;-64
2021/08/26 01:47:15;;;;;;;13.23;8.55;;;;;;;;;;5093769;28;20031;-63
2021/08/26 01:49:49;;;;;;;11.27;7.95;;;;;;;;;;5093712;28;20043;-63
2021/08/26 01:52:15;;;;;;;13.55;8.40;;;;;;;;;;5093515;28;20458;-63
2021/08/26 01:54:51;;;;;;;14.43;8.25;;;;;;;;;;5075237;28;20027;-69
2021/08/26 01:57:18;;;;;;;11.68;8.05;;;;;;;;;;5075675;28;20466;-64
2021/08/26 01:59:44;;;;;;;11.90;8.18;;;;;;;;;;5093579;28;20521;-69
2021/08/26 02:02:10;;;;;;;12.77;8.75;;;;;;;;;;5093156;28;20032;-69
2021/08/26 02:04:35;;;;;;;13.15;8.57;;;;;;;;;;5093428;28;20040;-70
2021/08/26 02:07:01;;;;;;;13.93;8.27;;;;;;;;;;5093542;28;20382;-71
2021/08/26 02:09:27;;;;;;;14.98;8.43;;;;;;;;;;5093264;28;20028;-71
2021/08/26 02:11:55;;;;;;;12.45;8.18;;;;;;;;;;5075508;28;20040;-71
2021/08/26 02:14:20;;;;;;;15.05;8.77;;;;;;;;;;5093269;28;20078;-70
2021/08/26 02:16:47;;;;;;;12.13;8.07;;;;;;;;;;5093262;28;20025;-70
2021/08/26 02:19:13;;;;;;;15.85;8.73;;;;;;;;;;5093445;28;20055;-70
2021/08/26 02:21:41;;;;;;;13.63;8.15;;;;;;;;;;5093380;28;20044;-70
2021/08/26 02:24:07;;;;;;;13.63;9.13;;;;;;;;;;5093744;28;20032;-70
2021/08/26 02:26:34;;;;;;;12.32;8.40;;;;;;;;;;5093130;28;20371;-69
2021/08/26 02:28:59;;;;;;;20.10;9.75;;;;;;;;;;5092995;28;20024;-65
2021/08/26 02:31:25;;;;;;;24.75;12.45;;;;;;;;;;5093237;28;20166;-64
2021/08/26 02:33:51;;;;;;;18.42;10.63;;;;;;;;;;5075266;28;20115;-64
2021/08/26 02:36:16;;;;;;;14.38;9.45;;;;;;;;;;5075690;28;20067;-64
2021/08/26 02:38:42;;;;;;;14.50;9.65;;;;;;;;;;5075186;28;20040;-64
2021/08/26 02:41:07;;;;;;;14.63;8.38;;;;;;;;;;5093332;28;20040;-63
2021/08/26 02:43:33;;;;;;;14.38;9.32;;;;;;;;;;5093519;28;20438;-63
2021/08/26 02:45:59;;;;;;;14.57;8.48;;;;;;;;;;5093222;28;20039;-63
2021/08/26 02:48:24;;;;;;;11.75;8.18;;;;;;;;;;5093306;28;20036;-63
2021/08/26 02:50:50;;;;;;;13.00;8.70;;;;;;;;;;5093196;28;20039;-63
2021/08/26 02:53:15;;;;;;;13.82;8.70;;;;;;;;;;5093232;28;20454;-63
2021/08/26 02:55:41;;;;;;;13.82;8.50;;;;;;;;;;5093238;28;20036;-63
2021/08/26 02:58:06;;;;;;;14.40;8.68;;;;;;;;;;5093226;28;20020;-63
2021/08/26 03:00:31;;;;;;;13.05;8.23;;;;;;;;;;5075123;28;20115;-64
2021/08/26 03:02:57;;;;;;;15.90;8.75;;;;;;;;;;5092676;28;20040;-64
2021/08/26 03:05:22;;;;;;;12.73;8.50;;;;;;;;;;5092954;28;20040;-64
2021/08/26 03:07:48;;;;;;;11.98;7.97;;;;;;;;;;5092929;28;20031;-64
2021/08/26 03:10:13;;;;;;;14.20;9.00;;;;;;;;;;5074884;28;20486;-63
2021/08/26 03:12:39;;;;;;;11.68;7.38;;;;;;;;;;5074899;28;20016;-69
2021/08/26 03:15:06;;;;;;;12.52;7.97;;;;;;;;;;5093054;28;20043;-70
2021/08/26 03:17:32;;;;;;;9.95;6.72;;;;;;;;;;5095265;28;20024;-70
2021/08/26 03:19:57;;;;;;;13.75;8.38;;;;;;;;;;5096219;28;20034;-70
2021/08/26 03:22:23;;;;;;;11.45;7.68;;;;;;;;;;5096006;28;20111;-64
2021/08/26 03:24:48;;;;;;;11.65;8.02;;;;;;;;;;5096223;28;20038;-63
2021/08/26 03:27:14;;;;;;;13.20;8.10;;;;;;;;;;5077997;28;20028;-69
2021/08/26 03:29:40;;;;;;;12.13;7.55;;;;;;;;;;5095869;28;20043;-69
2021/08/26 03:32:06;;;;;;;10.98;7.68;;;;;;;;;;5096366;28;20533;-68
2021/08/26 03:34:32;;;;;;;11.88;7.47;;;;;;;;;;5061064;28;20517;-69
2021/08/26 03:37:00;;;;;;;12.75;7.55;;;;;;;;;;5096121;28;20028;-68
2021/08/26 03:39:26;;;;;;;13.15;7.93;;;;;;;;;;5095880;28;20394;-68
2021/08/26 03:41:53;;;;;;;11.77;7.97;;;;;;;;;;5096562;28;20024;-69
2021/08/26 03:44:20;;;;;;;12.00;7.53;;;;;;;;;;5095889;28;20040;-69
2021/08/26 03:46:47;;;;;;;12.65;7.43;;;;;;;;;;5077626;28;20030;-69
2021/08/26 03:49:12;;;;;;;10.35;7.20;;;;;;;;;;5095624;28;20490;-69
2021/08/26 03:51:38;;;;;;;11.57;7.07;;;;;;;;;;5077638;28;20028;-69
2021/08/26 03:54:04;;;;;;;10.32;7.05;;;;;;;;;;5095729;28;20085;-68
2021/08/26 03:56:30;;;;;;;9.10;6.68;;;;;;;;;;5095780;28;20355;-68
2021/08/26 03:58:55;;;;;;;10.40;6.95;;;;;;;;;;5095990;28;20044;-70
2021/08/26 04:01:21;;;;;;;10.00;6.85;;;;;;;;;;5095830;28;20389;-69
2021/08/26 04:03:46;;;;;;;12.13;7.20;;;;;;;;;;5095089;28;20143;-69
2021/08/26 04:06:12;;;;;;;11.20;7.13;;;;;;;;;;5060654;28;20040;-69
2021/08/26 04:08:41;;;;;;;10.77;6.97;;;;;;;;;;5095462;28;20044;-69
2021/08/26 04:11:07;;;;;;;11.05;7.35;;;;;;;;;;5095690;28;20024;-69
2021/08/26 04:13:34;;;;;;;11.57;7.13;;;;;;;;;;5077385;28;20036;-69
2021/08/26 04:16:00;;;;;;;8.95;6.80;;;;;;;;;;5094684;28;20028;-69
2021/08/26 04:18:25;;;;;;;14.20;7.82;;;;;;;;;;5095052;28;20036;-69
2021/08/26 04:20:54;;;;;;;10.50;7.57;;;;;;;;;;5095051;28;20024;-69
2021/08/26 04:23:20;;;;;;;12.70;7.93;;;;;;;;;;5094928;28;20559;-70
2021/08/26 04:25:49;;;;;;;11.23;7.18;;;;;;;;;;5077364;28;20071;-68
2021/08/26 04:28:17;;;;;;;9.40;6.83;;;;;;;;;;5094622;28;20402;-67
2021/08/26 04:30:42;;;;;;;11.63;7.38;;;;;;;;;;5095498;28;20492;-68
2021/08/26 04:33:08;;;;;;;11.00;7.50;;;;;;;;;;5095033;28;20036;-68
2021/08/26 04:35:39;;;;;;;12.07;7.53;;;;;;;;;;5094908;28;20106;-68
2021/08/26 04:38:05;;;;;;;;;;;;;;;;;;5095366;28;20031;-68
2021/08/26 04:40:30;;;;;;;8.52;6.50;;;;;;;;;;5094761;28;19904;-68
2021/08/26 04:42:56;;;;;;;10.60;6.80;;;;;;;;;;5077030;28;20040;-68
2021/08/26 04:45:22;;;;;;;11.80;7.38;;;;;;;;;;5077253;28;20051;-68
2021/08/26 04:47:49;;;;;;;9.32;6.88;;;;;;;;;;5094816;28;20466;-69
2021/08/26 04:50:15;;;;;;;10.10;6.97;;;;;;;;;;5076998;28;20508;-69
2021/08/26 04:52:41;;;;;;;11.75;7.50;;;;;;;;;;5076553;28;20039;-69
2021/08/26 04:55:06;;;;;;;11.57;7.15;;;;;;;;;;5077044;28;20070;-68
2021/08/26 04:57:32;;;;;;;10.27;7.38;;;;;;;;;;5094425;28;20032;-70
2021/08/26 05:00:04;;;;;;;11.18;7.18;;;;;;;;;;5094279;28;20032;-70
2021/08/26 05:02:30;;;;;;;9.90;6.72;;;;;;;;;;5093839;28;20079;-70
2021/08/26 05:04:57;;;;;;;14.75;7.93;;;;;;;;;;5076426;28;20509;-70
2021/08/26 05:07:23;;;;;;;10.30;7.22;;;;;;;;;;5094325;28;20024;-70
2021/08/26 05:09:48;;;;;;;10.35;7.10;;;;;;;;;;5093918;28;20452;-70
2021/08/26 05:12:15;;;;;;;10.63;7.45;;;;;;;;;;5094393;28;20016;-70
2021/08/26 05:14:40;;;;;;;9.48;6.90;;;;;;;;;;5076104;28;20032;-70
2021/08/26 05:17:06;;;;;;;11.52;7.05;;;;;;;;;;5094306;28;20020;-71
2021/08/26 05:19:32;;;;;;;10.18;6.90;;;;;;;;;;5094080;28;20490;-70
2021/08/26 05:21:58;;;;;;;10.25;6.90;;;;;;;;;;5094300;28;20486;-70
2021/08/26 05:24:23;;;;;;;12.45;7.43;;;;;;;;;;5093805;28;20036;-70
2021/08/26 05:26:49;;;;;;;10.13;7.10;;;;;;;;;;5093868;28;20028;-71
2021/08/26 05:29:14;;;;;;;8.50;6.75;;;;;;;;;;5075743;28;20040;-70
2021/08/26 05:31:40;;;;;;;10.55;7.80;;;;;;;;;;5094025;28;20107;-71
2021/08/26 05:34:05;;;;;;;9.18;7.15;;;;;;;;;;5075815;28;20467;-70
2021/08/26 05:36:32;;;;;;;11.48;7.95;;;;;;;;;;5094320;28;20028;-69
2021/08/26 05:39:05;;;;;;;10.35;7.60;;;;;;;;;;5092982;28;20131;-70
2021/08/26 05:41:32;;;;;;;9.90;6.88;;;;;;;;;;5093873;28;20032;-70
2021/08/26 05:43:57;;;;;;;10.00;7.38;;;;;;;;;;5093651;28;20071;-70
2021/08/26 05:46:23;;;;;;;8.95;6.78;;;;;;;;;;5093891;28;20044;-69
2021/08/26 05:48:50;;;;;;;11.30;7.50;;;;;;;;;;5075547;28;20028;-69
2021/08/26 05:51:15;;;;;;;11.75;7.97;;;;;;;;;;5075622;28;20040;-70
2021/08/26 05:53:42;;;;;;;9.80;7.25;;;;;;;;;;5093499;28;20035;-69
2021/08/26 05:56:07;;;;;;;9.55;7.07;;;;;;;;;;5075704;28;20115;-69
2021/08/26 05:58:34;;;;;;;12.20;7.05;;;;;;;;;;5093918;28;20062;-70
2021/08/26 06:01:01;;;;;;;7.82;6.40;;;;;;;;;;5075165;28;20382;-70
2021/08/26 06:03:26;;;;;;;10.88;7.10;;;;;;;;;;5089914;28;20047;-70
2021/08/26 06:05:52;;;;;;;11.88;7.03;;;;;;;;;;5100906;28;20036;-64
2021/08/26 06:08:17;;;;;;;9.65;7.40;;;;;;;;;;5093560;28;20028;-64
2021/08/26 06:10:43;;;;;;;10.43;6.82;;;;;;;;;;5093375;28;20039;-64
2021/08/26 06:13:08;;;;;;;10.90;7.00;;;;;;;;;;5075250;28;20020;-64
2021/08/26 06:15:34;;;;;;;9.48;6.90;;;;;;;;;;5075430;28;20109;-64
2021/08/26 06:17:59;;;;;;;10.63;6.70;;;;;;;;;;5093433;28;20130;-65
2021/08/26 06:20:25;;;;;;;11.30;7.15;;;;;;;;;;5093475;28;20034;-64
2021/08/26 06:22:50;;;;;;;10.13;6.70;;;;;;;;;;5098555;28;20467;-64
2021/08/26 06:25:16;;;;;;;9.82;7.13;;;;;;;;;;5104529;28;20032;-64
2021/08/26 06:27:41;;;;;;;10.27;7.35;;;;;;;;;;5102592;28;20023;-63
2021/08/26 06:30:08;;;;;;;10.07;7.53;;;;;;;;;;5094272;28;20034;-64
2021/08/26 06:32:33;;;;;;;9.93;6.70;;;;;;;;;;5113498;28;20031;-64
2021/08/26 06:35:01;;;;;;;9.65;6.50;;;;;;;;;;5114111;28;20028;-63
2021/08/26 06:37:27;;;;;;;8.52;6.40;;;;;;;;;;5113362;28;20024;-64
2021/08/26 06:39:52;;;;;;;9.23;6.78;;;;;;;;;;5113572;28;20439;-64
2021/08/26 06:42:18;;;;;;;9.00;6.38;;;;;;;;;;5113633;28;20046;-63
2021/08/26 06:44:43;;;;;;;9.20;6.55;;;;;;;;;;5113444;28;20032;-64
2021/08/26 06:47:09;;;;;;;9.98;6.18;;;;;;;;;;5113475;28;20363;-64
2021/08/26 06:49:34;;;;;;;9.57;6.10;;;;;;;;;;5113299;28;20040;-64
2021/08/26 06:52:00;;;;;;;9.30;6.28;;;;;;;;;;5116967;28;20020;-64
2021/08/26 06:54:25;;;;;;;11.60;5.97;;;;;;;;;;5117257;28;20040;-64
2021/08/26 06:56:51;;;;;;;10.32;6.50;;;;;;;;;;5117509;28;20028;-64
2021/08/26 06:59:16;;;;;;;10.85;6.97;;;;;;;;;;5099151;28;20036;-63
2021/08/26 07:01:42;;;;;;;10.48;6.72;;;;;;;;;;5098817;28;20023;-64
2021/08/26 07:04:07;;;;;;;7.05;5.55;;;;;;;;;;5116766;28;20468;-64
2021/08/26 07:06:33;;;;;;;7.80;5.43;;;;;;;;;;5117231;28;20036;-63
2021/08/26 07:09:00;;;;;;;10.25;5.97;;;;;;;;;;5117107;28;20057;-64
2021/08/26 07:11:26;;;;;;;9.20;6.03;;;;;;;;;;5117592;28;20093;-64
2021/08/26 07:13:51;;;;;;;9.13;5.40;;;;;;;;;;5117220;28;20110;-64
2021/08/26 07:16:17;;;;;;;7.97;4.90;;;;;;;;;;5107457;28;20066;-64
2021/08/26 07:18:42;;;;;;;13.00;6.10;;;;;;;;;;5096597;28;20040;-64
2021/08/26 07:21:08;;;;;;;8.18;5.30;;;;;;;;;;5078638;28;20055;-63
2021/08/26 07:23:33;;;;;;;8.95;5.28;;;;;;;;;;5096310;28;20028;-63
2021/08/26 07:25:58;;;;;;;8.55;5.15;;;;;;;;;;5089951;28;20176;-63
2021/08/26 07:28:24;;;;;;;7.82;5.07;;;;;;;;;;5096724;28;20044;-63
2021/08/26 07:30:50;;;;;;;8.88;4.95;;;;;;;;;;5095911;28;20047;-63
2021/08/26 07:33:15;;;;;;;7.35;4.93;;;;;;;;;;5099280;28;20024;-64
2021/08/26 07:35:41;;;;;;;8.57;5.63;;;;;;;;;;5104259;28;20024;-63
2021/08/26 07:38:06;;;;;;;9.43;5.07;;;;;;;;;;5097989;28;20540;-63
2021/08/26 07:40:32;;;;;;;9.50;5.60;;;;;;;;;;5096179;28;20039;-63
2021/08/26 07:42:57;;;;;;;8.98;5.55;;;;;;;;;;5095708;28;20035;-63
2021/08/26 07:45:23;;;;;;;6.22;4.25;;;;;;;;;;5095845;28;20067;-63
2021/08/26 07:47:48;;;;;;;10.38;6.03;;;;;;;;;;5096006;28;20082;-64
2021/08/26 07:50:14;;;;;;;8.35;5.72;;;;;;;;;;5095599;28;20043;-63
2021/08/26 07:52:39;;;;;;;10.02;5.55;;;;;;;;;;5102868;28;20062;-63
2021/08/26 07:55:05;;;;;;;10.63;6.05;;;;;;;;;;5115874;28;20385;-63
2021/08/26 07:57:31;;;;;;;10.05;6.25;;;;;;;;;;5116233;28;20039;-63
2021/08/26 08:00:03;;;;;;;7.47;5.10;;;;;;;;;;5097910;28;20485;-69
2021/08/26 08:02:30;;;;;;;7.30;4.93;;;;;;;;;;5114486;28;20035;-69
2021/08/26 08:04:56;;;;;;;5.72;4.25;;;;;;;;;;5097843;28;20646;-69
2021/08/26 08:07:21;;;;;;;9.65;5.95;;;;;;;;;;5115776;28;20027;-69
2021/08/26 08:09:47;;;;;;;9.23;5.75;;;;;;;;;;5115497;28;20169;-63
2021/08/26 08:12:12;;;;;;;11.25;5.95;;;;;;;;;;5115511;28;20027;-63
2021/08/26 08:14:39;;;;;;;8.88;5.60;;;;;;;;;;5097568;28;20036;-63
2021/08/26 08:17:05;;;;;;;9.23;5.68;;;;;;;;;;5115379;28;20574;-63
2021/08/26 08:19:30;;;;;;;8.45;5.95;;;;;;;;;;5115272;28;20115;-63
2021/08/26 08:21:56;;;;;;;10.48;6.10;;;;;;;;;;5115449;28;20377;-63
2021/08/26 08:24:21;;;;;;;10.05;5.60;;;;;;;;;;5115555;28;20481;-63
2021/08/26 08:26:47;;;;;;;6.60;4.07;;;;;;;;;;5115286;28;20027;-63
2021/08/26 08:29:12;;;;;;;9.85;6.43;;;;;;;;;;5096832;28;20130;-62
2021/08/26 08:31:38;;;;;;;8.00;5.97;;;;;;;;;;5114280;28;20041;-62
2021/08/26 08:34:07;;;;;;;7.88;5.32;;;;;;;;;;5115061;28;20031;-62
2021/08/26 08:36:32;;;;;;;8.50;6.10;;;;;;;;;;5097001;28;20035;-62
2021/08/26 08:38:59;;;;;;;6.85;4.07;;;;;;;;;;5115317;28;20043;-62
2021/08/26 08:41:27;;;;;;;7.43;5.30;;;;;;;;;;5096530;28;20027;-62
2021/08/26 08:43:53;;;;;;;7.15;4.90;;;;;;;;;;5115366;28;20035;-62
2021/08/26 08:46:20;;;;;;;8.82;5.68;;;;;;;;;;5096753;28;20035;-62
2021/08/26 08:48:49;;;;;;;5.88;4.07;;;;;;;;;;5114607;28;20138;-63
2021/08/26 08:51:15;;;;;;;10.82;5.80;;;;;;;;;;5114933;28;20478;-62
2021/08/26 08:53:40;;;;;;;7.63;5.22;;;;;;;;;;5114755;28;20031;-63
2021/08/26 08:56:07;;;;;;;7.93;4.38;;;;;;;;;;5114718;28;20543;-63
2021/08/26 08:58:40;;;;;;;7.05;4.88;;;;;;;;;;5114802;28;20035;-63
2021/08/26 09:01:07;;;;;;;9.13;5.53;;;;;;;;;;5114715;28;20067;-69
2021/08/26 09:03:37;;;;;;;7.88;5.43;;;;;;;;;;5114138;28;20092;-69
2021/08/26 09:06:03;;;;;;;5.47;4.40;;;;;;;;;;5114759;28;20088;-69
2021/08/26 09:08:31;;;;;;;7.57;4.82;;;;;;;;;;5114715;28;20071;-69
2021/08/26 09:11:17;;;;;;;7.85;5.53;;;;;;;;;;5114460;28;20496;-69
2021/08/26 09:13:45;;;;;;;8.88;5.53;;;;;;;;;;5113984;28;20078;-69
2021/08/26 09:16:11;;;;;;;7.63;5.25;;;;;;;;;;5114730;28;20034;-69
2021/08/26 09:18:38;;;;;;;7.60;4.45;;;;;;;;;;5096461;28;20043;-69
2021/08/26 09:21:06;;;;;;;9.35;5.20;;;;;;;;;;5096553;28;20043;-69
2021/08/26 09:23:33;;;;;;;9.32;5.35;;;;;;;;;;5114980;28;20036;-69
2021/08/26 09:26:15;;;;;;;7.05;5.45;;;;;;;;;;5114341;28;20038;-69
2021/08/26 09:28:40;;;;;;;7.30;5.32;;;;;;;;;;5114380;28;20114;-69
2021/08/26 09:45:40;;;;;;;5.45;3.78;;;;;;;;;;5051952;28;20120;-69
2021/08/26 09:55:51;;;;;;;7.93;5.43;;;;;;;;;;5051809;28;20083;-69
2021/08/26 10:17:30;;;;;;;6.80;4.85;;;;;;;;;;5051728;28;20055;-69
2021/08/26 10:23:31;;;;;;;5.50;4.72;;;;;;;;;;5051563;28;20032;-69
2021/08/26 10:33:33;;;;;;;6.78;4.68;;;;;;;;;;5055281;28;20028;-69
2021/08/26 10:39:34;;;;;;;5.20;4.72;;;;;;;;;;5097741;28;20401;-69
2021/08/26 10:52:55;;;;;;;6.00;4.10;;;;;;;;;;5097389;28;20070;-68
2021/08/26 11:02:41;;;;;;;5.10;3.95;;;;;;;;;;5097276;28;20112;-69
2021/08/26 11:12:30;;;;;;;4.35;3.80;;;;;;;;;;5117519;28;20080;-69
2021/08/26 11:18:31;;;;;;;3.78;3.20;;;;;;;;;;5117405;28;20516;-69
2021/08/26 11:24:34;;;;;;;3.72;3.42;;;;;;;;;;5117044;28;20422;-69
2021/08/26 11:30:35;;;;;;;4.03;3.63;;;;;;;;;;5116870;28;20386;-69
2021/08/26 11:36:35;;;;;;;5.03;4.18;;;;;;;;;;5116167;28;20034;-69
2021/08/26 11:42:37;;;;;;;4.82;4.07;;;;;;;;;;5116944;28;20111;-73
2021/08/26 11:48:51;;;;;;;2.53;2.10;;;;;;;;;;5116735;28;20073;-73
2021/08/26 11:58:30;;;;;;;3.65;2.92;;;;;;;;;;5116630;28;20030;-73
2021/08/26 12:04:35;;;;;;;5.18;3.78;;;;;;;;;;5116478;28;20038;-73
2021/08/26 12:14:12;;;;;;;3.88;3.53;;;;;;;;;;5116061;28;20049;-73
2021/08/26 12:20:13;;;;;;;4.93;3.65;;;;;;;;;;5116214;28;20389;-73
2021/08/26 12:26:15;;;;;;;5.13;3.78;;;;;;;;;;5115826;28;20021;-72
2021/08/26 12:32:26;;;;;;;3.85;3.22;;;;;;;;;;5115930;28;20031;-72
2021/08/26 12:38:31;;;;;;;6.20;3.58;;;;;;;;;;5115629;28;20168;-72
2021/08/26 12:44:32;;;;;;;3.55;3.22;;;;;;;;;;5115730;28;20077;-72
2021/08/26 12:54:22;;;;;;;4.72;3.40;;;;;;;;;;5115264;28;20030;-72
2021/08/26 13:14:42;;;;;;;4.28;3.80;;;;;;;;;;5052540;28;20064;-72
2021/08/26 13:20:43;;;;;;;4.28;3.50;;;;;;;;;;5052422;28;20039;-73
2021/08/26 13:26:43;;;;;;;4.00;3.55;;;;;;;;;;5052578;28;20023;-73
2021/08/26 13:32:44;;;;;;;5.82;3.95;;;;;;;;;;5052247;28;20107;-73
2021/08/26 13:38:45;;;;;;;4.20;3.78;;;;;;;;;;5114504;28;20030;-73
2021/08/26 13:44:46;;;;;;;4.63;3.83;;;;;;;;;;5114403;28;20023;-73
2021/08/26 13:50:47;;;;;;;3.97;3.22;;;;;;;;;;5114276;28;20093;-73
2021/08/26 13:56:48;;;;;;;3.78;3.30;;;;;;;;;;5114539;28;20031;-73
2021/08/26 14:02:49;;;;;;;5.43;3.17;;;;;;;;;;5114458;28;20436;-73
2021/08/26 14:08:49;;;;;;;4.50;3.60;;;;;;;;;;5114280;28;20097;-73
2021/08/26 14:17:59;;;;;;;4.32;3.35;;;;;;;;;;5114287;28;20102;-73
2021/08/26 14:24:00;;;;;;;3.60;3.28;;;;;;;;;;5113975;28;20173;-73
2021/08/26 14:30:00;;;;;;;5.85;3.70;;;;;;;;;;5113734;28;20090;-69
2021/08/26 14:32:26;;;;;;;3.50;3.03;;;;;;;;;;5113501;28;20424;-69
2021/08/26 14:34:52;;;;;;;4.47;3.42;;;;;;;;;;5113687;28;20088;-69
2021/08/26 14:37:18;;;;;;;4.75;3.70;;;;;;;;;;5113386;28;20036;-69
2021/08/26 14:39:44;;;;;;;3.65;3.10;;;;;;;;;;5078295;28;20480;-69
2021/08/26 14:42:10;;;;;;;7.63;4.63;;;;;;;;;;5112859;28;20044;-69
2021/08/26 14:44:35;;;;;;;7.65;5.13;;;;;;;;;;5095229;28;20020;-69
2021/08/26 14:47:01;;;;;;;8.95;6.00;;;;;;;;;;5113369;28;20085;-69
2021/08/26 14:49:26;;;;;;;9.20;5.50;;;;;;;;;;5113394;28;20061;-68
2021/08/26 14:51:52;;;;;;;7.03;5.20;;;;;;;;;;5095530;28;20036;-68
2021/08/26 14:54:17;;;;;;;7.78;5.07;;;;;;;;;;5095162;28;20531;-68
2021/08/26 14:56:43;;;;;;;7.95;5.40;;;;;;;;;;5095379;28;20038;-68
2021/08/26 14:59:08;;;;;;;5.05;3.88;;;;;;;;;;5113170;28;20046;-68
2021/08/26 15:05:09;;;;;;;8.63;5.90;;;;;;;;;;5113591;28;20425;-68
2021/08/26 15:11:10;;;;;;;7.80;5.28;;;;;;;;;;5114267;28;20046;-68
2021/08/26 15:24:48;;;;;;;7.53;5.13;;;;;;;;;;5117335;28;20081;-68
2021/08/26 15:30:50;;;;;;;8.57;5.72;;;;;;;;;;5116851;28;20105;-68
2021/08/26 15:36:51;;;;;;;4.68;3.45;;;;;;;;;;5117031;28;20373;-68
2021/08/26 15:42:51;;;;;;;4.65;3.45;;;;;;;;;;5116950;28;20031;-68
2021/08/26 15:48:57;;;;;;;5.40;3.20;;;;;;;;;;5116630;28;20125;-68
2021/08/26 15:51:26;;;;;;;4.40;2.83;;;;;;;;;;5116816;28;20054;-68
2021/08/26 15:56:31;;;;;;;3.40;3.00;;;;;;;;;;5116051;28;20039;-69
2021/08/26 15:59:02;;;;;;;3.40;3.10;;;;;;;;;;5116039;28;20515;-69
2021/08/26 16:01:31;;;;;;;3.13;2.83;;;;;;;;;;5115975;28;20108;-69
2021/08/26 16:03:56;;;;;;;4.20;3.03;;;;;;;;;;5116049;28;20161;-69
2021/08/26 16:06:25;;;;;;;5.07;3.35;;;;;;;;;;5080732;28;20122;-69
2021/08/26 16:08:50;;;;;;;4.32;3.50;;;;;;;;;;5115933;28;20461;-69
2021/08/26 16:11:16;;;;;;;3.53;3.22;;;;;;;;;;5115828;28;20036;-69
2021/08/26 16:13:42;;;;;;;3.28;2.85;;;;;;;;;;5115504;28;20023;-69
2021/08/26 16:16:10;;;;;;;4.93;3.42;;;;;;;;;;5097194;28;20493;-69
2021/08/26 16:18:35;;;;;;;3.53;3.05;;;;;;;;;;5097518;28;20020;-68
2021/08/26 16:21:01;;;;;;;4.50;3.72;;;;;;;;;;5096736;28;20513;-69
2021/08/26 16:23:27;;;;;;;3.65;3.33;;;;;;;;;;5096788;28;20032;-69
2021/08/26 16:25:52;;;;;;;5.78;3.95;;;;;;;;;;5110500;28;20012;-69
2021/08/26 16:28:18;;;;;;;7.32;3.88;;;;;;;;;;5097140;28;20032;-69
2021/08/26 16:30:43;;;;;;;4.28;3.65;;;;;;;;;;5095031;28;20032;-69
2021/08/26 16:33:09;;;;;;;7.07;4.72;;;;;;;;;;5094843;28;20082;-69
2021/08/26 16:35:35;;;;;;;5.55;4.57;;;;;;;;;;5095175;28;20106;-69
2021/08/26 16:38:01;;;;;;;3.67;3.38;;;;;;;;;;5076609;28;20036;-69
2021/08/26 16:40:26;;;;;;;3.60;3.30;;;;;;;;;;5094550;28;20114;-69
2021/08/26 16:42:52;;;;;;;3.55;3.20;;;;;;;;;;5095054;28;20127;-69
2021/08/26 16:45:18;;;;;;;3.40;3.10;;;;;;;;;;5094645;28;20055;-69
2021/08/26 16:47:44;;;;;;;6.93;4.18;;;;;;;;;;5086945;28;20039;-69
2021/08/26 16:50:10;;;;;;;15.98;9.65;;;;;;;;;;5096456;28;20378;-69
2021/08/26 16:52:36;;;;;;;19.40;10.77;;;;;;;;;;5096677;28;20028;-69
2021/08/26 16:55:02;;;;;;;11.70;7.50;;;;;;;;;;5114835;28;20034;-69
2021/08/26 16:57:28;;;;;;;12.48;6.95;;;;;;;;;;5114985;28;20115;-69
2021/08/26 16:59:53;;;;;;;9.63;6.35;;;;;;;;;;5096532;28;20024;-69
2021/08/26 17:02:20;;;;;;;8.55;5.22;;;;;;;;;;5114852;28;20181;-73
2021/08/26 17:04:45;;;;;;;6.15;4.60;;;;;;;;;;5096722;28;20035;-73
2021/08/26 17:07:11;;;;;;;7.40;4.88;;;;;;;;;;5096945;28;20043;-73
2021/08/26 17:09:36;;;;;;;10.38;5.55;;;;;;;;;;5114598;28;20389;-73
2021/08/26 17:12:02;;;;;;;12.20;7.38;;;;;;;;;;5114583;28;20503;-73
2021/08/26 17:14:27;;;;;;;11.65;6.97;;;;;;;;;;5114625;28;20376;-73
2021/08/26 17:16:53;;;;;;;8.73;6.32;;;;;;;;;;5114535;28;20035;-73
2021/08/26 17:19:19;;;;;;;6.80;4.90;;;;;;;;;;5096309;28;20085;-73
2021/08/26 17:21:45;;;;;;;13.68;11.98;;;;;;;;;;5092344;28;20126;-73
2021/08/26 17:24:11;;;;;;;16.75;14.40;;;;;;;;;;5094369;28;20131;-72
2021/08/26 17:26:38;;;;;;;24.88;13.65;;;;;;;;;;5094138;28;20069;-72
2021/08/26 17:29:03;;;;;;;26.02;13.60;;;;;;;;;;5092537;28;20044;-72
2021/08/26 17:31:29;;;;;;;12.48;8.13;;;;;;;;;;5099034;28;20031;-72
2021/08/26 17:33:56;;;;;;;8.80;5.13;;;;;;;;;;5109629;28;20031;-72
2021/08/26 17:36:21;;;;;;;4.85;4.13;;;;;;;;;;5113389;28;20015;-73
2021/08/26 17:38:47;;;;;;;4.60;3.47;;;;;;;;;;5114255;28;20481;-73
2021/08/26 17:41:13;;;;;;;3.75;2.95;;;;;;;;;;5114348;28;20015;-73
2021/08/26 17:43:39;;;;;;;4.05;3.00;;;;;;;;;;5096047;28;20047;-70
2021/08/26 17:46:04;;;;;;;4.40;3.15;;;;;;;;;;5113970;28;20370;-70
2021/08/26 17:48:30;;;;;;;4.97;3.97;;;;;;;;;;5114280;28;20031;-70
2021/08/26 17:50:56;;;;;;;7.07;3.58;;;;;;;;;;5114023;28;20023;-70
2021/08/26 17:53:23;;;;;;;3.80;3.30;;;;;;;;;;5114446;28;20035;-70
2021/08/26 17:55:48;;;;;;;5.00;3.60;;;;;;;;;;5095866;28;20134;-69
2021/08/26 17:58:15;;;;;;;4.35;3.95;;;;;;;;;;5114162;28;20039;-64
2021/08/26 18:00:41;;;;;;;4.38;3.75;;;;;;;;;;5113845;28;20429;-65
2021/08/26 18:03:07;;;;;;;3.78;3.40;;;;;;;;;;5114222;28;20062;-62
2021/08/26 18:05:32;;;;;;;4.50;4.10;;;;;;;;;;5113725;28;20028;-65
2021/08/26 18:07:59;;;;;;;5.18;4.57;;;;;;;;;;5095759;28;20036;-65
2021/08/26 18:10:26;;;;;;;6.88;4.78;;;;;;;;;;5095646;28;20055;-65
2021/08/26 18:12:54;;;;;;;6.15;5.05;;;;;;;;;;5113959;28;20466;-62
2021/08/26 18:15:19;;;;;;;5.30;4.60;;;;;;;;;;5113649;28;20106;-68
2021/08/26 18:17:45;;;;;;;4.65;4.25;;;;;;;;;;5113946;28;20063;-68
2021/08/26 18:20:12;;;;;;;5.53;4.28;;;;;;;;;;5113587;28;20382;-68
2021/08/26 18:22:40;;;;;;;8.43;6.35;;;;;;;;;;5113426;28;20079;-68
2021/08/26 18:25:07;;;;;;;9.23;6.78;;;;;;;;;;5110271;28;20032;-68
2021/08/26 18:27:32;;;;;;;10.02;6.43;;;;;;;;;;5094261;28;20516;-67
2021/08/26 18:30:00;;;;;;;6.95;6.22;;;;;;;;;;5093062;28;20079;-67
2021/08/26 18:32:25;;;;;;;5.85;4.72;;;;;;;;;;5093325;28;20024;-67
2021/08/26 18:34:53;;;;;;;7.15;4.80;;;;;;;;;;5093206;28;20055;-67
2021/08/26 18:37:20;;;;;;;6.63;4.82;;;;;;;;;;5097384;28;20103;-66
2021/08/26 18:39:46;;;;;;;5.53;4.68;;;;;;;;;;5101865;28;20165;-67
2021/08/26 18:42:11;;;;;;;5.80;4.60;;;;;;;;;;5094281;28;20077;-67